sensor_id;sensor_type;location;lat;lon;timestamp;temperature;humidity
4602;DHT22;2313;48.552;9.370;2024-01-15T00:01:27;-1.50;99.90
4602;DHT22;2313;48.552;9.370;2024-01-15T00:03:53;-1.40;99.90
4602;DHT22;2313;48.552;9.370;2024-01-15T00:06:18;-1.40;99.90
4602;DHT22;2313;48.552;9.370;2024-01-15T00:08:44;-1.40;99.90
4602;DHT22;2313;48.552;9.370;2024-01-15T00:11:09;-1.30;99.90
4602;DHT22;2313;48.552;9.370;2024-01-15T00:13:35;-1.30;99.90
4602;DHT22;2313;48.552;9.370;2024-01-15T00:16:00;-1.30;99.90
4602;DHT22;2313;48.552;9.370;2024-01-15T00:18:26;-1.30;99.90
4602;DHT22;2313;48.552;9.370;2024-01-15T00:20:51;-1.20;99.90
4602;DHT22;2313;48.552;9.370;2024-01-15T00:23:17;-1.20;99.90
4602;DHT22;2313;48.552;9.370;2024-01-15T00:25:43;-1.20;99.90
4602;DHT22;2313;48.552;9.370;2024-01-15T00:28:08;-1.20;99.90
4602;DHT22;2313;48.552;9.370;2024-01-15T00:30:34;-1.20;99.90
4602;DHT22;2313;48.552;9.370;2024-01-15T00:32:59;-1.30;99.90
4602;DHT22;2313;48.552;9.370;2024-01-15T00:35:25;-1.20;99.90
4602;DHT22;2313;48.552;9.370;2024-01-15T00:37:50;-1.20;99.90
4602;DHT22;2313;48.552;9.370;2024-01-15T00:40:16;-1.20;99.90
4602;DHT22;2313;48.552;9.370;2024-01-15T00:42:42;-1.10;99.90
4602;DHT22;2313;48.552;9.370;2024-01-15T00:45:08;-1.10;99.90
4602;DHT22;2313;48.552;9.370;2024-01-15T00:47:34;-1.00;99.90
4602;DHT22;2313;48.552;9.370;2024-01-15T00:50:00;-1.10;99.90
4602;DHT22;2313;48.552;9.370;2024-01-15T00:52:26;-1.00;99.90
4602;DHT22;2313;48.552;9.370;2024-01-15T00:54:51;-1.00;99.90
4602;DHT22;2313;48.552;9.370;2024-01-15T00:57:17;-1.00;99.90
4602;DHT22;2313;48.552;9.370;2024-01-15T00:59:44;-1.00;99.90
4602;DHT22;2313;48.552;9.370;2024-01-15T01:02:10;-1.10;99.90
4602;DHT22;2313;48.552;9.370;2024-01-15T01:04:36;-1.00;99.90
4602;DHT22;2313;48.552;9.370;2024-01-15T01:07:01;-1.10;99.90
4602;DHT22;2313;48.552;9.370;2024-01-15T01:09:27;-1.00;99.90
4602;DHT22;2313;48.552;9.370;2024-01-15T01:11:56;-1.00;99.90
4602;DHT22;2313;48.552;9.370;2024-01-15T01:14:22;-1.00;99.90
4602;DHT22;2313;48.552;9.370;2024-01-15T01:16:47;-1.00;99.90
4602;DHT22;2313;48.552;9.370;2024-01-15T01:19:13;-1.00;99.90
4602;DHT22;2313;48.552;9.370;2024-01-15T01:21:39;-0.90;99.90
4602;DHT22;2313;48.552;9.370;2024-01-15T01:24:04;-1.00;99.90
4602;DHT22;2313;48.552;9.370;2024-01-15T01:26:30;-0.90;99.90
4602;DHT22;2313;48.552;9.370;2024-01-15T01:28:56;-0.90;99.90
4602;DHT22;2313;48.552;9.370;2024-01-15T01:31:23;-0.80;99.90
4602;DHT22;2313;48.552;9.370;2024-01-15T01:33:49;-0.70;99.90
4602;DHT22;2313;48.552;9.370;2024-01-15T01:36:14;-0.80;99.90
4602;DHT22;2313;48.552;9.370;2024-01-15T01:38:41;-0.70;99.90
4602;DHT22;2313;48.552;9.370;2024-01-15T01:41:07;-0.80;99.90
4602;DHT22;2313;48.552;9.370;2024-01-15T01:43:32;-0.80;99.90
4602;DHT22;2313;48.552;9.370;2024-01-15T01:46:00;-0.90;99.90
4602;DHT22;2313;48.552;9.370;2024-01-15T01:48:26;-0.80;99.90
4602;DHT22;2313;48.552;9.370;2024-01-15T01:50:57;-0.90;99.90
4602;DHT22;2313;48.552;9.370;2024-01-15T01:53:23;-0.90;99.90
4602;DHT22;2313;48.552;9.370;2024-01-15T01:55:50;-0.90;99.90
4602;DHT22;2313;48.552;9.370;2024-01-15T01:58:16;-1.00;99.90
4602;DHT22;2313;48.552;9.370;2024-01-15T02:00:42;-1.00;99.90
4602;DHT22;2313;48.552;9.370;2024-01-15T02:03:08;-1.00;99.90
4602;DHT22;2313;48.552;9.370;2024-01-15T02:05:35;-1.00;99.90
4602;DHT22;2313;48.552;9.370;2024-01-15T02:08:01;-1.00;99.90
4602;DHT22;2313;48.552;9.370;2024-01-15T02:10:27;-0.90;99.90
4602;DHT22;2313;48.552;9.370;2024-01-15T02:12:52;-0.90;99.90
4602;DHT22;2313;48.552;9.370;2024-01-15T02:15:18;-0.90;99.90
4602;DHT22;2313;48.552;9.370;2024-01-15T02:18:01;-0.90;99.90
4602;DHT22;2313;48.552;9.370;2024-01-15T02:20:27;-0.90;99.90
4602;DHT22;2313;48.552;9.370;2024-01-15T02:22:53;-1.00;99.90
4602;DHT22;2313;48.552;9.370;2024-01-15T02:25:18;-1.00;99.90
4602;DHT22;2313;48.552;9.370;2024-01-15T02:27:44;-0.90;99.90
4602;DHT22;2313;48.552;9.370;2024-01-15T02:30:11;-0.90;99.90
4602;DHT22;2313;48.552;9.370;2024-01-15T02:32:38;-1.00;99.90
4602;DHT22;2313;48.552;9.370;2024-01-15T02:35:04;-0.90;99.90
4602;DHT22;2313;48.552;9.370;2024-01-15T02:37:30;-0.90;99.90
4602;DHT22;2313;48.552;9.370;2024-01-15T02:39:55;-0.90;99.90
4602;DHT22;2313;48.552;9.370;2024-01-15T02:42:21;-0.90;99.90
4602;DHT22;2313;48.552;9.370;2024-01-15T02:44:46;-0.90;99.90
4602;DHT22;2313;48.552;9.370;2024-01-15T02:47:14;-0.90;99.90
4602;DHT22;2313;48.552;9.370;2024-01-15T02:49:40;-1.00;99.90
4602;DHT22;2313;48.552;9.370;2024-01-15T02:52:05;-1.00;99.90
4602;DHT22;2313;48.552;9.370;2024-01-15T02:54:31;-1.00;99.90
4602;DHT22;2313;48.552;9.370;2024-01-15T02:56:57;-0.90;99.90
4602;DHT22;2313;48.552;9.370;2024-01-15T02:59:22;-1.00;99.90
4602;DHT22;2313;48.552;9.370;2024-01-15T03:01:48;-1.00;99.90
4602;DHT22;2313;48.552;9.370;2024-01-15T03:04:13;-1.00;99.90
4602;DHT22;2313;48.552;9.370;2024-01-15T03:06:39;-0.90;99.90
4602;DHT22;2313;48.552;9.370;2024-01-15T03:09:04;-0.90;99.90
4602;DHT22;2313;48.552;9.370;2024-01-15T03:11:37;-0.90;99.90
4602;DHT22;2313;48.552;9.370;2024-01-15T03:14:03;-0.90;99.90
4602;DHT22;2313;48.552;9.370;2024-01-15T03:16:28;-1.00;99.90
4602;DHT22;2313;48.552;9.370;2024-01-15T03:18:54;-0.90;99.90
4602;DHT22;2313;48.552;9.370;2024-01-15T03:21:20;-1.00;99.90
4602;DHT22;2313;48.552;9.370;2024-01-15T03:23:45;-1.00;99.90
4602;DHT22;2313;48.552;9.370;2024-01-15T03:26:11;-1.00;99.90
4602;DHT22;2313;48.552;9.370;2024-01-15T03:28:36;-1.00;99.90
4602;DHT22;2313;48.552;9.370;2024-01-15T03:31:02;-1.00;99.90
4602;DHT22;2313;48.552;9.370;2024-01-15T03:33:28;-1.00;99.90
4602;DHT22;2313;48.552;9.370;2024-01-15T03:35:53;-0.90;99.90
4602;DHT22;2313;48.552;9.370;2024-01-15T03:38:19;-0.90;99.90
4602;DHT22;2313;48.552;9.370;2024-01-15T03:40:44;-0.90;99.90
4602;DHT22;2313;48.552;9.370;2024-01-15T03:43:10;-0.80;99.90
4602;DHT22;2313;48.552;9.370;2024-01-15T03:45:35;-0.80;99.90
4602;DHT22;2313;48.552;9.370;2024-01-15T03:48:01;-0.90;99.90
4602;DHT22;2313;48.552;9.370;2024-01-15T03:50:27;-0.90;99.90
4602;DHT22;2313;48.552;9.370;2024-01-15T03:52:52;-0.80;99.90
4602;DHT22;2313;48.552;9.370;2024-01-15T03:55:18;-0.80;99.90
4602;DHT22;2313;48.552;9.370;2024-01-15T03:57:43;-0.80;99.90
4602;DHT22;2313;48.552;9.370;2024-01-15T04:00:09;-0.80;99.90
4602;DHT22;2313;48.552;9.370;2024-01-15T04:02:35;-0.60;99.90
4602;DHT22;2313;48.552;9.370;2024-01-15T04:05:01;-0.70;99.90
4602;DHT22;2313;48.552;9.370;2024-01-15T04:07:26;-0.80;99.90
4602;DHT22;2313;48.552;9.370;2024-01-15T04:09:52;-0.70;99.90
4602;DHT22;2313;48.552;9.370;2024-01-15T04:12:17;-0.70;99.90
4602;DHT22;2313;48.552;9.370;2024-01-15T04:14:43;-0.70;99.90
4602;DHT22;2313;48.552;9.370;2024-01-15T04:17:08;-0.70;99.90
4602;DHT22;2313;48.552;9.370;2024-01-15T04:19:34;-0.70;99.90
4602;DHT22;2313;48.552;9.370;2024-01-15T04:21:59;-0.70;99.90
4602;DHT22;2313;48.552;9.370;2024-01-15T04:24:25;-0.70;99.90
4602;DHT22;2313;48.552;9.370;2024-01-15T04:26:51;-0.70;99.90
4602;DHT22;2313;48.552;9.370;2024-01-15T04:29:16;-0.70;99.90
4602;DHT22;2313;48.552;9.370;2024-01-15T04:31:42;-0.60;99.90
4602;DHT22;2313;48.552;9.370;2024-01-15T04:34:08;-0.60;99.90
4602;DHT22;2313;48.552;9.370;2024-01-15T04:36:39;-0.80;99.90
4602;DHT22;2313;48.552;9.370;2024-01-15T04:39:05;-0.70;99.90
4602;DHT22;2313;48.552;9.370;2024-01-15T04:41:30;-0.70;99.90
4602;DHT22;2313;48.552;9.370;2024-01-15T04:43:56;-0.70;99.90
4602;DHT22;2313;48.552;9.370;2024-01-15T04:46:21;-0.70;99.90
4602;DHT22;2313;48.552;9.370;2024-01-15T04:48:47;-0.80;99.90
4602;DHT22;2313;48.552;9.370;2024-01-15T04:51:12;-0.90;99.90
4602;DHT22;2313;48.552;9.370;2024-01-15T04:53:38;-0.80;99.90
4602;DHT22;2313;48.552;9.370;2024-01-15T04:56:04;-0.90;99.90
4602;DHT22;2313;48.552;9.370;2024-01-15T04:58:29;-0.90;99.90
4602;DHT22;2313;48.552;9.370;2024-01-15T05:00:55;-0.80;99.90
4602;DHT22;2313;48.552;9.370;2024-01-15T05:03:21;-0.80;99.90
4602;DHT22;2313;48.552;9.370;2024-01-15T05:05:46;-0.80;99.90
4602;DHT22;2313;48.552;9.370;2024-01-15T05:08:12;-0.90;99.90
4602;DHT22;2313;48.552;9.370;2024-01-15T05:10:37;-0.90;99.90
4602;DHT22;2313;48.552;9.370;2024-01-15T05:13:03;-0.90;99.90
4602;DHT22;2313;48.552;9.370;2024-01-15T05:15:29;-0.90;99.90
4602;DHT22;2313;48.552;9.370;2024-01-15T05:17:55;-1.00;99.90
4602;DHT22;2313;48.552;9.370;2024-01-15T05:20:20;-1.00;99.90
4602;DHT22;2313;48.552;9.370;2024-01-15T05:22:46;-1.00;99.90
4602;DHT22;2313;48.552;9.370;2024-01-15T05:25:11;-0.90;99.90
4602;DHT22;2313;48.552;9.370;2024-01-15T05:27:37;-0.90;99.90
4602;DHT22;2313;48.552;9.370;2024-01-15T05:30:03;-0.90;99.90
4602;DHT22;2313;48.552;9.370;2024-01-15T05:32:29;-0.80;99.90
4602;DHT22;2313;48.552;9.370;2024-01-15T05:34:55;-0.70;99.90
4602;DHT22;2313;48.552;9.370;2024-01-15T05:37:20;-0.70;99.90
4602;DHT22;2313;48.552;9.370;2024-01-15T05:39:46;-0.60;99.90
4602;DHT22;2313;48.552;9.370;2024-01-15T05:42:11;-0.60;99.90
4602;DHT22;2313;48.552;9.370;2024-01-15T05:44:37;-0.60;99.90
4602;DHT22;2313;48.552;9.370;2024-01-15T05:47:03;-0.50;99.90
4602;DHT22;2313;48.552;9.370;2024-01-15T05:49:29;-0.50;99.90
4602;DHT22;2313;48.552;9.370;2024-01-15T05:51:55;-0.50;99.90
4602;DHT22;2313;48.552;9.370;2024-01-15T05:54:20;-0.40;99.90
4602;DHT22;2313;48.552;9.370;2024-01-15T05:56:46;-0.40;99.90
4602;DHT22;2313;48.552;9.370;2024-01-15T05:59:12;-0.40;99.90
4602;DHT22;2313;48.552;9.370;2024-01-15T06:01:37;-0.30;99.90
4602;DHT22;2313;48.552;9.370;2024-01-15T06:04:03;-0.30;99.90
4602;DHT22;2313;48.552;9.370;2024-01-15T06:06:29;-0.20;99.90
4602;DHT22;2313;48.552;9.370;2024-01-15T06:08:54;-0.30;99.90
4602;DHT22;2313;48.552;9.370;2024-01-15T06:11:20;-0.30;99.90
4602;DHT22;2313;48.552;9.370;2024-01-15T06:13:45;-0.30;99.90
4602;DHT22;2313;48.552;9.370;2024-01-15T06:16:18;-0.30;99.90
4602;DHT22;2313;48.552;9.370;2024-01-15T06:18:45;-0.30;99.90
4602;DHT22;2313;48.552;9.370;2024-01-15T06:21:11;-0.30;99.90
4602;DHT22;2313;48.552;9.370;2024-01-15T06:23:39;-0.50;99.90
4602;DHT22;2313;48.552;9.370;2024-01-15T06:26:05;-0.50;99.90
4602;DHT22;2313;48.552;9.370;2024-01-15T06:28:31;-0.50;99.90
4602;DHT22;2313;48.552;9.370;2024-01-15T06:30:57;-0.60;99.90
4602;DHT22;2313;48.552;9.370;2024-01-15T06:33:23;-0.70;99.90
4602;DHT22;2313;48.552;9.370;2024-01-15T06:35:49;-0.80;99.90
4602;DHT22;2313;48.552;9.370;2024-01-15T06:38:15;-0.70;99.90
4602;DHT22;2313;48.552;9.370;2024-01-15T06:40:41;-0.80;99.90
4602;DHT22;2313;48.552;9.370;2024-01-15T06:43:11;-0.80;99.90
4602;DHT22;2313;48.552;9.370;2024-01-15T06:45:37;-0.80;99.90
4602;DHT22;2313;48.552;9.370;2024-01-15T06:48:03;-0.80;99.90
4602;DHT22;2313;48.552;9.370;2024-01-15T06:50:28;-0.80;99.90
4602;DHT22;2313;48.552;9.370;2024-01-15T06:52:54;-0.80;99.90
4602;DHT22;2313;48.552;9.370;2024-01-15T06:55:20;-0.80;99.90
4602;DHT22;2313;48.552;9.370;2024-01-15T06:57:45;-0.80;99.90
4602;DHT22;2313;48.552;9.370;2024-01-15T07:00:11;-0.70;99.90
4602;DHT22;2313;48.552;9.370;2024-01-15T07:02:37;-0.80;99.90
4602;DHT22;2313;48.552;9.370;2024-01-15T07:05:02;-0.80;99.90
4602;DHT22;2313;48.552;9.370;2024-01-15T07:07:30;-0.80;99.90
4602;DHT22;2313;48.552;9.370;2024-01-15T07:09:56;-0.70;99.90
4602;DHT22;2313;48.552;9.370;2024-01-15T07:12:22;-0.80;99.90
4602;DHT22;2313;48.552;9.370;2024-01-15T07:14:48;-0.70;99.90
4602;DHT22;2313;48.552;9.370;2024-01-15T07:17:13;-0.70;99.90
4602;DHT22;2313;48.552;9.370;2024-01-15T07:19:39;-0.70;99.90
4602;DHT22;2313;48.552;9.370;2024-01-15T07:22:04;-0.70;99.90
4602;DHT22;2313;48.552;9.370;2024-01-15T07:24:30;-0.70;99.90
4602;DHT22;2313;48.552;9.370;2024-01-15T07:26:55;-0.70;99.90
4602;DHT22;2313;48.552;9.370;2024-01-15T07:29:21;-0.70;99.90
4602;DHT22;2313;48.552;9.370;2024-01-15T07:31:50;-0.70;99.90
4602;DHT22;2313;48.552;9.370;2024-01-15T07:34:17;-0.60;99.90
4602;DHT22;2313;48.552;9.370;2024-01-15T07:36:46;-0.60;99.90
4602;DHT22;2313;48.552;9.370;2024-01-15T07:39:11;-0.60;99.90
4602;DHT22;2313;48.552;9.370;2024-01-15T07:41:37;-0.60;99.90
4602;DHT22;2313;48.552;9.370;2024-01-15T07:44:03;-0.50;99.90
4602;DHT22;2313;48.552;9.370;2024-01-15T07:46:29;-0.40;99.90
4602;DHT22;2313;48.552;9.370;2024-01-15T07:48:54;-0.40;99.90
4602;DHT22;2313;48.552;9.370;2024-01-15T07:51:23;-0.40;99.90
4602;DHT22;2313;48.552;9.370;2024-01-15T07:53:50;-0.40;99.90
4602;DHT22;2313;48.552;9.370;2024-01-15T07:56:15;-0.30;99.90
4602;DHT22;2313;48.552;9.370;2024-01-15T07:58:42;-0.30;99.90
4602;DHT22;2313;48.552;9.370;2024-01-15T08:01:07;-0.30;99.90
4602;DHT22;2313;48.552;9.370;2024-01-15T08:03:33;-0.20;99.90
4602;DHT22;2313;48.552;9.370;2024-01-15T08:05:59;-0.20;99.90
4602;DHT22;2313;48.552;9.370;2024-01-15T08:08:25;-0.20;99.90
4602;DHT22;2313;48.552;9.370;2024-01-15T08:10:55;-0.10;99.90
4602;DHT22;2313;48.552;9.370;2024-01-15T08:13:21;-0.10;99.90
4602;DHT22;2313;48.552;9.370;2024-01-15T08:15:47;0.00;99.90
4602;DHT22;2313;48.552;9.370;2024-01-15T08:18:12;0.00;99.90
4602;DHT22;2313;48.552;9.370;2024-01-15T08:20:38;0.00;99.90
4602;DHT22;2313;48.552;9.370;2024-01-15T08:23:04;0.10;99.90
4602;DHT22;2313;48.552;9.370;2024-01-15T08:25:30;0.10;99.90
4602;DHT22;2313;48.552;9.370;2024-01-15T08:27:58;0.10;99.90
4602;DHT22;2313;48.552;9.370;2024-01-15T08:30:24;0.20;99.90
4602;DHT22;2313;48.552;9.370;2024-01-15T08:32:53;0.20;99.90
4602;DHT22;2313;48.552;9.370;2024-01-15T08:35:19;0.30;99.90
4602;DHT22;2313;48.552;9.370;2024-01-15T08:37:49;0.30;99.90
4602;DHT22;2313;48.552;9.370;2024-01-15T08:40:15;0.30;99.90
4602;DHT22;2313;48.552;9.370;2024-01-15T08:42:41;0.40;99.90
4602;DHT22;2313;48.552;9.370;2024-01-15T08:45:07;0.40;99.90
4602;DHT22;2313;48.552;9.370;2024-01-15T08:47:33;0.50;99.90
4602;DHT22;2313;48.552;9.370;2024-01-15T08:50:00;0.40;99.90
4602;DHT22;2313;48.552;9.370;2024-01-15T08:52:26;0.40;99.90
4602;DHT22;2313;48.552;9.370;2024-01-15T08:54:51;0.50;99.90
4602;DHT22;2313;48.552;9.370;2024-01-15T08:57:17;0.50;99.90
4602;DHT22;2313;48.552;9.370;2024-01-15T08:59:43;0.60;99.90
4602;DHT22;2313;48.552;9.370;2024-01-15T09:02:09;0.70;99.90
4602;DHT22;2313;48.552;9.370;2024-01-15T09:04:34;0.70;99.90
4602;DHT22;2313;48.552;9.370;2024-01-15T09:07:00;0.70;99.90
4602;DHT22;2313;48.552;9.370;2024-01-15T09:09:25;0.70;99.90
4602;DHT22;2313;48.552;9.370;2024-01-15T09:11:51;0.70;99.90
4602;DHT22;2313;48.552;9.370;2024-01-15T09:14:17;0.70;99.90
4602;DHT22;2313;48.552;9.370;2024-01-15T09:16:43;0.80;99.90
4602;DHT22;2313;48.552;9.370;2024-01-15T09:19:09;0.90;99.90
4602;DHT22;2313;48.552;9.370;2024-01-15T09:21:34;0.90;99.90
4602;DHT22;2313;48.552;9.370;2024-01-15T09:24:00;0.90;99.90
4602;DHT22;2313;48.552;9.370;2024-01-15T09:26:25;1.00;99.90
4602;DHT22;2313;48.552;9.370;2024-01-15T09:28:52;1.00;99.90
4602;DHT22;2313;48.552;9.370;2024-01-15T09:31:17;1.10;99.90
4602;DHT22;2313;48.552;9.370;2024-01-15T09:33:45;1.10;99.90
4602;DHT22;2313;48.552;9.370;2024-01-15T09:36:10;1.00;99.90
4602;DHT22;2313;48.552;9.370;2024-01-15T09:38:36;1.10;99.90
4602;DHT22;2313;48.552;9.370;2024-01-15T09:41:01;1.00;99.90
4602;DHT22;2313;48.552;9.370;2024-01-15T09:43:27;1.00;99.90
4602;DHT22;2313;48.552;9.370;2024-01-15T09:45:53;1.10;99.90
4602;DHT22;2313;48.552;9.370;2024-01-15T09:48:20;1.20;99.90
4602;DHT22;2313;48.552;9.370;2024-01-15T09:50:45;1.20;99.90
4602;DHT22;2313;48.552;9.370;2024-01-15T09:53:12;1.30;99.90
4602;DHT22;2313;48.552;9.370;2024-01-15T09:55:41;1.30;99.90
4602;DHT22;2313;48.552;9.370;2024-01-15T09:58:07;1.30;99.90
4602;DHT22;2313;48.552;9.370;2024-01-15T10:00:33;1.20;99.90
4602;DHT22;2313;48.552;9.370;2024-01-15T10:03:03;1.40;99.90
4602;DHT22;2313;48.552;9.370;2024-01-15T10:05:29;1.30;99.90
4602;DHT22;2313;48.552;9.370;2024-01-15T10:07:56;1.30;99.90
4602;DHT22;2313;48.552;9.370;2024-01-15T10:10:23;1.40;99.90
4602;DHT22;2313;48.552;9.370;2024-01-15T10:12:49;1.50;99.90
4602;DHT22;2313;48.552;9.370;2024-01-15T10:15:15;1.40;99.90
4602;DHT22;2313;48.552;9.370;2024-01-15T10:17:42;1.40;99.90
4602;DHT22;2313;48.552;9.370;2024-01-15T10:20:11;1.40;99.90
4602;DHT22;2313;48.552;9.370;2024-01-15T10:22:44;1.40;99.90
4602;DHT22;2313;48.552;9.370;2024-01-15T10:25:12;1.40;99.90
4602;DHT22;2313;48.552;9.370;2024-01-15T10:27:38;1.60;99.90
4602;DHT22;2313;48.552;9.370;2024-01-15T10:30:06;1.70;99.90
4602;DHT22;2313;48.552;9.370;2024-01-15T10:32:32;1.70;99.90
4602;DHT22;2313;48.552;9.370;2024-01-15T10:34:57;1.70;99.90
4602;DHT22;2313;48.552;9.370;2024-01-15T10:37:24;1.70;99.90
4602;DHT22;2313;48.552;9.370;2024-01-15T10:39:51;1.70;99.90
4602;DHT22;2313;48.552;9.370;2024-01-15T10:42:16;1.70;99.90
4602;DHT22;2313;48.552;9.370;2024-01-15T10:44:44;1.70;99.90
4602;DHT22;2313;48.552;9.370;2024-01-15T10:47:10;1.70;99.90
4602;DHT22;2313;48.552;9.370;2024-01-15T10:49:36;1.70;99.90
4602;DHT22;2313;48.552;9.370;2024-01-15T10:52:02;1.70;99.90
4602;DHT22;2313;48.552;9.370;2024-01-15T10:54:29;1.80;99.90
4602;DHT22;2313;48.552;9.370;2024-01-15T10:56:56;1.80;99.90
4602;DHT22;2313;48.552;9.370;2024-01-15T10:59:21;1.80;99.90
4602;DHT22;2313;48.552;9.370;2024-01-15T11:01:51;1.80;99.90
4602;DHT22;2313;48.552;9.370;2024-01-15T11:04:21;1.80;99.90
4602;DHT22;2313;48.552;9.370;2024-01-15T11:06:51;1.80;99.90
4602;DHT22;2313;48.552;9.370;2024-01-15T11:09:17;1.80;99.90
4602;DHT22;2313;48.552;9.370;2024-01-15T11:11:45;1.80;99.90
4602;DHT22;2313;48.552;9.370;2024-01-15T11:14:38;1.80;99.90
4602;DHT22;2313;48.552;9.370;2024-01-15T11:17:04;1.90;99.90
4602;DHT22;2313;48.552;9.370;2024-01-15T11:19:50;1.90;99.90
4602;DHT22;2313;48.552;9.370;2024-01-15T11:24:57;1.80;99.90
4602;DHT22;2313;48.552;9.370;2024-01-15T11:27:46;1.80;99.90
4602;DHT22;2313;48.552;9.370;2024-01-15T11:30:19;1.80;99.90
4602;DHT22;2313;48.552;9.370;2024-01-15T11:32:47;1.80;99.90
4602;DHT22;2313;48.552;9.370;2024-01-15T11:35:14;1.70;99.90
4602;DHT22;2313;48.552;9.370;2024-01-15T11:40:20;1.60;99.90
4602;DHT22;2313;48.552;9.370;2024-01-15T11:42:46;1.60;99.90
4602;DHT22;2313;48.552;9.370;2024-01-15T11:45:14;1.60;99.90
4602;DHT22;2313;48.552;9.370;2024-01-15T11:50:35;1.50;99.90
4602;DHT22;2313;48.552;9.370;2024-01-15T11:53:02;1.60;99.90
4602;DHT22;2313;48.552;9.370;2024-01-15T11:55:37;1.60;99.90
4602;DHT22;2313;48.552;9.370;2024-01-15T11:58:08;1.60;99.90
4602;DHT22;2313;48.552;9.370;2024-01-15T12:00:55;1.70;99.90
4602;DHT22;2313;48.552;9.370;2024-01-15T12:03:22;1.60;99.90
4602;DHT22;2313;48.552;9.370;2024-01-15T12:05:48;1.50;99.90
4602;DHT22;2313;48.552;9.370;2024-01-15T12:08:13;1.50;99.90
4602;DHT22;2313;48.552;9.370;2024-01-15T12:10:40;1.40;99.90
4602;DHT22;2313;48.552;9.370;2024-01-15T12:13:12;1.30;99.90
4602;DHT22;2313;48.552;9.370;2024-01-15T12:15:39;1.30;99.90
4602;DHT22;2313;48.552;9.370;2024-01-15T12:18:09;1.40;99.90
4602;DHT22;2313;48.552;9.370;2024-01-15T12:20:35;1.40;99.90
4602;DHT22;2313;48.552;9.370;2024-01-15T12:23:01;1.30;99.90
4602;DHT22;2313;48.552;9.370;2024-01-15T12:25:31;1.40;99.90
4602;DHT22;2313;48.552;9.370;2024-01-15T12:27:58;1.40;99.90
4602;DHT22;2313;48.552;9.370;2024-01-15T12:30:23;1.40;99.90
4602;DHT22;2313;48.552;9.370;2024-01-15T12:32:50;1.30;99.90
4602;DHT22;2313;48.552;9.370;2024-01-15T12:35:16;1.40;99.90
4602;DHT22;2313;48.552;9.370;2024-01-15T12:37:42;1.30;99.90
4602;DHT22;2313;48.552;9.370;2024-01-15T12:40:09;1.30;99.90
4602;DHT22;2313;48.552;9.370;2024-01-15T12:42:42;1.40;99.90
4602;DHT22;2313;48.552;9.370;2024-01-15T12:45:09;1.30;99.90
4602;DHT22;2313;48.552;9.370;2024-01-15T12:47:35;1.40;99.90
4602;DHT22;2313;48.552;9.370;2024-01-15T12:50:01;1.40;99.90
4602;DHT22;2313;48.552;9.370;2024-01-15T12:52:27;1.40;99.90
4602;DHT22;2313;48.552;9.370;2024-01-15T12:54:53;1.40;99.90
4602;DHT22;2313;48.552;9.370;2024-01-15T12:57:19;1.50;99.90
4602;DHT22;2313;48.552;9.370;2024-01-15T12:59:45;1.40;99.90
4602;DHT22;2313;48.552;9.370;2024-01-15T13:02:12;1.30;99.90
4602;DHT22;2313;48.552;9.370;2024-01-15T13:04:38;1.30;99.90
4602;DHT22;2313;48.552;9.370;2024-01-15T13:07:04;1.10;99.90
4602;DHT22;2313;48.552;9.370;2024-01-15T13:09:30;1.10;99.90
4602;DHT22;2313;48.552;9.370;2024-01-15T13:11:56;1.10;99.90
4602;DHT22;2313;48.552;9.370;2024-01-15T13:14:21;1.20;99.90
4602;DHT22;2313;48.552;9.370;2024-01-15T13:16:47;1.10;99.90
4602;DHT22;2313;48.552;9.370;2024-01-15T13:19:13;1.10;99.90
4602;DHT22;2313;48.552;9.370;2024-01-15T13:21:43;1.00;99.90
4602;DHT22;2313;48.552;9.370;2024-01-15T13:24:09;1.00;99.90
4602;DHT22;2313;48.552;9.370;2024-01-15T13:26:36;1.10;99.90
4602;DHT22;2313;48.552;9.370;2024-01-15T13:29:05;1.00;99.90
4602;DHT22;2313;48.552;9.370;2024-01-15T13:31:32;1.00;99.90
4602;DHT22;2313;48.552;9.370;2024-01-15T13:33:57;1.00;99.90
4602;DHT22;2313;48.552;9.370;2024-01-15T13:36:24;1.00;99.90
4602;DHT22;2313;48.552;9.370;2024-01-15T13:38:50;1.00;99.90
4602;DHT22;2313;48.552;9.370;2024-01-15T13:41:17;1.00;99.90
4602;DHT22;2313;48.552;9.370;2024-01-15T13:43:53;1.00;99.90
4602;DHT22;2313;48.552;9.370;2024-01-15T13:46:25;0.90;99.90
4602;DHT22;2313;48.552;9.370;2024-01-15T13:48:55;0.80;99.90
4602;DHT22;2313;48.552;9.370;2024-01-15T13:51:23;0.70;99.90
4602;DHT22;2313;48.552;9.370;2024-01-15T13:53:50;0.80;99.90
4602;DHT22;2313;48.552;9.370;2024-01-15T13:56:16;0.60;99.90
4602;DHT22;2313;48.552;9.370;2024-01-15T13:58:42;0.60;99.90
4602;DHT22;2313;48.552;9.370;2024-01-15T14:01:08;0.60;99.90
4602;DHT22;2313;48.552;9.370;2024-01-15T14:03:34;0.60;99.90
4602;DHT22;2313;48.552;9.370;2024-01-15T14:06:00;0.50;99.90
4602;DHT22;2313;48.552;9.370;2024-01-15T14:08:28;0.40;99.90
4602;DHT22;2313;48.552;9.370;2024-01-15T14:10:53;0.40;99.90
4602;DHT22;2313;48.552;9.370;2024-01-15T14:13:21;0.50;99.90
4602;DHT22;2313;48.552;9.370;2024-01-15T14:15:47;0.40;99.90
4602;DHT22;2313;48.552;9.370;2024-01-15T14:18:14;0.40;99.90
4602;DHT22;2313;48.552;9.370;2024-01-15T14:20:39;0.40;99.90
4602;DHT22;2313;48.552;9.370;2024-01-15T14:23:05;0.50;99.90
4602;DHT22;2313;48.552;9.370;2024-01-15T14:25:30;0.50;99.90
4602;DHT22;2313;48.552;9.370;2024-01-15T14:27:56;0.50;99.90
4602;DHT22;2313;48.552;9.370;2024-01-15T14:30:22;0.50;99.90
4602;DHT22;2313;48.552;9.370;2024-01-15T14:32:47;0.50;99.90
4602;DHT22;2313;48.552;9.370;2024-01-15T14:35:13;0.50;99.90
4602;DHT22;2313;48.552;9.370;2024-01-15T14:37:39;0.50;99.90
4602;DHT22;2313;48.552;9.370;2024-01-15T14:40:08;0.50;99.90
4602;DHT22;2313;48.552;9.370;2024-01-15T14:42:34;0.50;99.90
4602;DHT22;2313;48.552;9.370;2024-01-15T14:45:00;0.50;99.90
4602;DHT22;2313;48.552;9.370;2024-01-15T14:47:27;0.50;99.90
4602;DHT22;2313;48.552;9.370;2024-01-15T14:49:53;0.50;99.90
4602;DHT22;2313;48.552;9.370;2024-01-15T14:52:18;0.50;99.90
4602;DHT22;2313;48.552;9.370;2024-01-15T14:54:44;0.50;99.90
4602;DHT22;2313;48.552;9.370;2024-01-15T14:57:09;0.40;99.90
4602;DHT22;2313;48.552;9.370;2024-01-15T14:59:35;0.40;99.90
4602;DHT22;2313;48.552;9.370;2024-01-15T15:02:01;0.30;99.90
4602;DHT22;2313;48.552;9.370;2024-01-15T15:04:26;0.30;99.90
4602;DHT22;2313;48.552;9.370;2024-01-15T15:06:53;0.30;99.90
4602;DHT22;2313;48.552;9.370;2024-01-15T15:09:19;0.30;99.90
4602;DHT22;2313;48.552;9.370;2024-01-15T15:11:45;0.30;99.90
4602;DHT22;2313;48.552;9.370;2024-01-15T15:14:10;0.30;99.90
4602;DHT22;2313;48.552;9.370;2024-01-15T15:16:36;0.30;99.90
4602;DHT22;2313;48.552;9.370;2024-01-15T15:19:01;0.30;99.90
4602;DHT22;2313;48.552;9.370;2024-01-15T15:21:27;0.30;99.90
4602;DHT22;2313;48.552;9.370;2024-01-15T15:23:54;0.30;99.90
4602;DHT22;2313;48.552;9.370;2024-01-15T15:26:20;0.30;99.90
4602;DHT22;2313;48.552;9.370;2024-01-15T15:28:45;0.30;99.90
4602;DHT22;2313;48.552;9.370;2024-01-15T15:31:11;0.20;99.90
4602;DHT22;2313;48.552;9.370;2024-01-15T15:33:37;0.20;99.90
4602;DHT22;2313;48.552;9.370;2024-01-15T15:36:03;0.20;99.90
4602;DHT22;2313;48.552;9.370;2024-01-15T15:38:32;0.10;99.90
4602;DHT22;2313;48.552;9.370;2024-01-15T15:40:58;0.10;99.90
4602;DHT22;2313;48.552;9.370;2024-01-15T15:43:27;0.10;99.90
4602;DHT22;2313;48.552;9.370;2024-01-15T15:45:53;0.10;99.90
4602;DHT22;2313;48.552;9.370;2024-01-15T15:48:19;0.20;99.90
4602;DHT22;2313;48.552;9.370;2024-01-15T15:50:44;0.20;99.90
4602;DHT22;2313;48.552;9.370;2024-01-15T15:53:11;0.20;99.90
4602;DHT22;2313;48.552;9.370;2024-01-15T15:55:36;0.20;99.90
4602;DHT22;2313;48.552;9.370;2024-01-15T15:58:03;0.10;99.90
4602;DHT22;2313;48.552;9.370;2024-01-15T16:00:29;0.20;99.90
4602;DHT22;2313;48.552;9.370;2024-01-15T16:02:55;0.20;99.90
4602;DHT22;2313;48.552;9.370;2024-01-15T16:05:21;0.20;99.90
4602;DHT22;2313;48.552;9.370;2024-01-15T16:07:47;0.20;99.90
4602;DHT22;2313;48.552;9.370;2024-01-15T16:10:13;0.10;99.90
4602;DHT22;2313;48.552;9.370;2024-01-15T16:12:40;0.10;99.90